Impacts METAR Board
IDs:

KDTW - Detroit Metro/Wayne, MI, US

Updated at: 0200 UTC 20 Mar 2019
Potential Impact None Slight Moderate High
Time 19/14Z 19/15Z 19/16Z 19/17Z 19/18Z 19/19Z 19/20Z 19/21Z 19/22Z 19/23Z 20/00Z 20/01Z 20/02Z
Temp36 39 43 42 45 48 48 48 47 45 43 41 37
Dewpt23 23 23 22 21 22 22 23 23 24 24 25 25
Altim30.41 30.42 30.41 30.41 30.41 30.38 30.35 30.34 30.33 30.32 30.32 30.31 30.31
VIS8 10 9 10 10 10 10 10 10 10 10 10 10
CIG-- -- -- 50 60 55 65 55 60 160 -- -- --
CoverFEWFEWSCTBKNBKNBKNBKNBKNBKNBKNFEWFEWFEW
FltCatVFRVFRVFRVFRVFRVFRVFRVFRVFRVFRVFRVFRVFR
WX--------------------------
WDir2100240240240270240240230210220200200
WSpd3 0 7 7 7 9 9 11 11 12 11 8 7
WGst-- -- -- -- -- -- -- -- -- -- -- -- --
Raw hourly METARs
KDTW 191353Z 21003KT 8SM FEW100 FEW240 02/M05 A3041 RMK AO2 SLP305 T00221050
KDTW 191453Z 00000KT 10SM FEW100 FEW240 04/M05 A3042 RMK AO2 SLP305 T00391050 51008
KDTW 191553Z 24007KT 9SM SCT040 SCT100 06/M05 A3041 RMK AO2 SLP305 T00611050
KDTW 191653Z 24007KT 210V270 10SM SCT040 BKN050 06/M06 A3041 RMK AO2 SLP303 T00561056
KDTW 191753Z 24007KT 10SM SCT050 BKN060 BKN250 07/M06 A3041 RMK AO2 SLP302 T00721061 10083 21022 58004
KDTW 191853Z 27009KT 10SM FEW045 BKN055 BKN160 09/M06 A3038 RMK AO2 SLP292 T00891056
KDTW 191953Z 24009KT 10SM SCT055 BKN065 BKN160 09/M06 A3035 RMK AO2 SLP284 T00891056
KDTW 192053Z 24011KT 10SM BKN055 BKN160 09/M05 A3034 RMK AO2 SLP279 T00891050 56022
KDTW 192153Z 23011KT 10SM BKN060 BKN160 08/M05 A3033 RMK AO2 SLP275 T00831050
KDTW 192253Z 21012KT 10SM SCT065 BKN160 07/M04 A3032 RMK AO2 SLP272 T00721044
KDTW 192353Z 22011KT 10SM FEW065 FEW160 06/M04 A3032 RMK AO2 SLP272 T00611044 10094 20056 56007
KDTW 200053Z 20008KT 10SM FEW160 05/M04 A3031 RMK AO2 SLP271 T00501039
KDTW 200153Z 20007KT 10SM FEW160 03/M04 A3031 RMK AO2 SLP270 T00281039



Page loaded:  02:47 UTC  |   07:47 PM Pacific  |   08:47 PM Mountain  |   09:47 PM Central  |   10:47 PM Eastern

 

ADVISORIES

FORECASTS

FORECASTS

OBSERVATIONS

USER TOOLS

ABOUT US